createdAt,value
2018-12-30T00:01:58.399Z,3.43
2018-12-30T00:04:28.121Z,3.60
2018-12-30T00:06:57.716Z,3.23
2018-12-30T00:09:27.037Z,3.43
2018-12-30T00:11:56.362Z,2.87
2018-12-30T00:14:25.677Z,2.60
2018-12-30T00:16:55.000Z,2.50
2018-12-30T00:19:24.585Z,2.40
2018-12-30T00:21:53.914Z,2.10
2018-12-30T00:24:23.234Z,2.40
2018-12-30T00:26:52.558Z,2.50
2018-12-30T00:29:21.888Z,2.20
2018-12-30T00:31:51.277Z,2.43
2018-12-30T00:34:20.597Z,2.60
2018-12-30T00:36:49.917Z,2.20
2018-12-30T00:39:19.242Z,1.87
2018-12-30T00:41:48.567Z,1.80
2018-12-30T00:44:17.881Z,1.73
2018-12-30T00:46:47.201Z,1.97
2018-12-30T00:49:16.602Z,2.40
2018-12-30T00:51:46.208Z,1.77
2018-12-30T00:54:15.517Z,2.60
2018-12-30T00:56:44.841Z,3.10
2018-12-30T00:59:14.167Z,2.70
2018-12-30T01:01:43.487Z,3.30
2018-12-30T01:04:12.882Z,2.77
2018-12-30T01:06:42.202Z,2.77
2018-12-30T01:09:11.524Z,2.70
2018-12-30T01:11:40.921Z,2.40
2018-12-30T01:14:10.246Z,2.40
2018-12-30T01:16:39.574Z,2.87
2018-12-30T01:19:08.894Z,2.87
2018-12-30T01:21:38.219Z,2.80
2018-12-30T01:24:07.541Z,2.77
2018-12-30T01:26:36.874Z,3.20
2018-12-30T01:29:06.197Z,3.30
2018-12-30T01:31:35.889Z,3.73
2018-12-30T01:34:05.214Z,3.97
2018-12-30T01:36:34.534Z,3.93
2018-12-30T01:39:05.137Z,3.60
2018-12-30T01:41:34.454Z,3.57
2018-12-30T01:44:04.050Z,3.23
2018-12-30T01:46:33.368Z,3.07
2018-12-30T01:49:02.689Z,2.73
2018-12-30T01:51:33.094Z,2.70
2018-12-30T01:54:02.590Z,3.10
2018-12-30T01:56:32.185Z,3.10
2018-12-30T01:59:01.514Z,3.30
2018-12-30T02:01:30.833Z,3.70
2018-12-30T02:04:00.149Z,4.03
2018-12-30T02:06:29.478Z,4.40
2018-12-30T02:08:59.027Z,3.40
2018-12-30T02:11:28.389Z,3.57
2018-12-30T02:13:57.706Z,3.30
2018-12-30T02:16:27.025Z,3.13
2018-12-30T02:18:56.350Z,3.60
2018-12-30T02:21:25.945Z,3.63
2018-12-30T02:23:55.279Z,3.90
2018-12-30T02:26:24.602Z,3.73
2018-12-30T02:28:53.927Z,3.00
2018-12-30T02:31:23.250Z,3.00
2018-12-30T02:33:52.565Z,2.70
2018-12-30T02:36:21.888Z,2.70
2018-12-30T02:38:51.211Z,2.47
2018-12-30T02:41:20.564Z,2.20
2018-12-30T02:43:49.870Z,2.80
2018-12-30T02:46:19.196Z,2.20
2018-12-30T02:48:48.521Z,2.03
2018-12-30T02:51:17.836Z,2.10
2018-12-30T02:53:47.234Z,2.40
2018-12-30T02:56:16.558Z,2.23
2018-12-30T02:58:45.882Z,2.20
2018-12-30T03:01:15.201Z,2.10
2018-12-30T03:03:44.526Z,1.90
2018-12-30T03:06:13.851Z,1.80
2018-12-30T03:08:43.446Z,1.60
2018-12-30T03:11:12.777Z,1.70
2018-12-30T03:13:42.095Z,1.50
2018-12-30T03:16:11.416Z,1.50
2018-12-30T03:18:40.736Z,1.67
2018-12-30T03:21:10.066Z,1.53
2018-12-30T03:23:39.416Z,1.23
2018-12-30T03:26:08.754Z,1.53
2018-12-30T03:28:38.098Z,1.43
2018-12-30T03:31:07.415Z,1.27
2018-12-30T03:33:36.729Z,1.13
2018-12-30T03:36:06.049Z,1.67
2018-12-30T03:38:35.383Z,1.30
2018-12-30T03:41:04.936Z,1.83
2018-12-30T03:43:34.290Z,1.30
2018-12-30T03:46:03.614Z,1.00
2018-12-30T03:48:32.935Z,1.90
2018-12-30T03:51:02.254Z,1.37
2018-12-30T03:53:31.647Z,2.00
2018-12-30T03:56:00.966Z,1.27
2018-12-30T03:58:30.285Z,1.47
2018-12-30T04:00:59.605Z,1.47
2018-12-30T04:03:28.930Z,1.40
2018-12-30T04:05:58.268Z,1.33
2018-12-30T04:08:27.585Z,1.30
2018-12-30T04:10:56.914Z,1.60
2018-12-30T04:13:26.225Z,1.70
2018-12-30T04:15:55.550Z,1.70
2018-12-30T04:18:24.869Z,1.30
2018-12-30T04:20:54.189Z,1.80
2018-12-30T04:23:23.514Z,1.10
2018-12-30T04:25:52.842Z,1.53
2018-12-30T04:28:22.162Z,2.27
2018-12-30T04:30:51.485Z,2.03
2018-12-30T04:33:20.845Z,1.87
2018-12-30T04:35:50.206Z,2.03
2018-12-30T04:38:19.530Z,2.23
2018-12-30T04:40:48.849Z,2.00
2018-12-30T04:43:19.647Z,1.77
2018-12-30T04:45:49.074Z,2.50
2018-12-30T04:48:18.389Z,1.97
2018-12-30T04:50:47.723Z,2.10
2018-12-30T04:53:17.055Z,2.47
2018-12-30T04:55:46.373Z,2.63
2018-12-30T04:58:15.693Z,2.47
2018-12-30T05:00:45.024Z,2.30
2018-12-30T05:03:14.360Z,2.27
2018-12-30T05:05:43.678Z,2.40
2018-12-30T05:08:13.006Z,2.90
2018-12-30T05:10:42.330Z,2.50
2018-12-30T05:13:11.657Z,2.10
2018-12-30T05:15:40.978Z,3.00
2018-12-30T05:18:10.307Z,3.40
2018-12-30T05:20:39.643Z,2.70
2018-12-30T05:23:08.966Z,2.67
2018-12-30T05:25:38.294Z,2.90
2018-12-30T05:28:07.618Z,2.83
2018-12-30T05:30:36.941Z,3.20
2018-12-30T05:33:06.270Z,3.07
2018-12-30T05:35:35.593Z,3.37
2018-12-30T05:38:04.919Z,2.67
2018-12-30T05:40:34.241Z,2.80
2018-12-30T05:43:03.561Z,3.30
2018-12-30T05:45:32.888Z,2.87
2018-12-30T05:48:02.215Z,2.90
2018-12-30T05:50:31.537Z,2.67
2018-12-30T05:53:00.862Z,3.87
2018-12-30T05:55:30.194Z,2.53
2018-12-30T05:57:59.519Z,4.83
2018-12-30T06:00:28.848Z,2.27
2018-12-30T06:02:58.169Z,3.07
2018-12-30T06:05:27.497Z,3.20
2018-12-30T06:07:56.823Z,3.33
2018-12-30T06:10:26.154Z,4.83
2018-12-30T06:12:55.484Z,3.80
2018-12-30T06:15:24.821Z,3.33
2018-12-30T06:17:54.143Z,3.23
2018-12-30T06:20:23.462Z,3.30
2018-12-30T06:22:52.786Z,3.27
2018-12-30T06:25:22.111Z,3.17
2018-12-30T06:27:51.438Z,2.87
2018-12-30T06:30:20.775Z,3.40
2018-12-30T06:32:50.264Z,3.00
2018-12-30T06:35:19.611Z,2.60
2018-12-30T06:37:48.931Z,2.73
2018-12-30T06:40:18.249Z,3.30
2018-12-30T06:42:47.573Z,2.50
2018-12-30T06:45:16.900Z,3.47
2018-12-30T06:47:46.226Z,3.50
2018-12-30T06:50:15.546Z,2.23
2018-12-30T06:52:44.870Z,2.87
2018-12-30T06:55:14.202Z,2.63
2018-12-30T06:57:43.521Z,2.47
2018-12-30T07:00:12.855Z,2.63
2018-12-30T07:02:42.173Z,2.70
2018-12-30T07:05:11.493Z,2.10
2018-12-30T07:07:40.827Z,2.80
2018-12-30T07:10:10.158Z,2.63
2018-12-30T07:12:39.482Z,2.60
2018-12-30T07:15:08.807Z,2.83
2018-12-30T07:17:38.129Z,2.67
2018-12-30T07:20:07.822Z,1.87
2018-12-30T07:22:37.146Z,2.30
2018-12-30T07:25:06.470Z,2.50
2018-12-30T07:27:35.807Z,2.57
2018-12-30T07:30:05.961Z,1.87
2018-12-30T07:32:35.282Z,1.90
2018-12-30T07:35:04.742Z,1.60
2018-12-30T07:37:34.060Z,1.90
2018-12-30T07:40:03.616Z,1.83
2018-12-30T07:42:32.984Z,2.60
2018-12-30T07:45:02.311Z,2.10
2018-12-30T07:47:31.638Z,2.27
2018-12-30T07:50:00.962Z,2.43
2018-12-30T07:52:30.286Z,1.77
2018-12-30T07:54:59.684Z,1.80
2018-12-30T07:57:29.011Z,2.13
2018-12-30T07:59:58.333Z,2.53
2018-12-30T08:02:27.655Z,2.20
2018-12-30T08:04:57.169Z,2.40
2018-12-30T08:07:26.490Z,1.80
2018-12-30T08:09:55.814Z,2.13
2018-12-30T08:12:25.133Z,2.47
2018-12-30T08:14:54.521Z,1.77
2018-12-30T08:17:23.854Z,2.10
2018-12-30T08:19:53.171Z,2.27
2018-12-30T08:22:22.500Z,2.87
2018-12-30T08:24:51.822Z,2.70
2018-12-30T08:27:21.146Z,2.23
2018-12-30T08:29:50.470Z,1.97
2018-12-30T08:32:19.789Z,1.83
2018-12-30T08:34:49.117Z,1.93
2018-12-30T08:37:18.511Z,2.30
2018-12-30T08:39:47.838Z,2.27
2018-12-30T08:42:17.161Z,2.40
2018-12-30T08:44:46.486Z,2.90
2018-12-30T08:47:15.805Z,2.40
2018-12-30T08:49:45.130Z,2.80
2018-12-30T08:52:14.454Z,2.13
2018-12-30T08:54:43.769Z,2.20
2018-12-30T08:57:13.153Z,2.20
2018-12-30T08:59:42.497Z,2.60
2018-12-30T09:02:11.855Z,3.27
2018-12-30T09:04:41.220Z,2.50
2018-12-30T09:07:10.549Z,2.27
2018-12-30T09:09:40.146Z,2.00
2018-12-30T09:12:09.466Z,2.50
2018-12-30T09:14:38.787Z,2.93
2018-12-30T09:17:08.110Z,2.77
2018-12-30T09:19:37.443Z,2.87
2018-12-30T09:22:06.757Z,2.10
2018-12-30T09:24:36.077Z,3.07
2018-12-30T09:27:05.405Z,2.83
2018-12-30T09:29:34.736Z,2.57
2018-12-30T09:32:04.069Z,2.67
2018-12-30T09:34:33.390Z,2.50
2018-12-30T09:37:02.723Z,2.77
2018-12-30T09:39:32.050Z,2.53
2018-12-30T09:42:01.370Z,2.23
2018-12-30T09:44:30.689Z,2.73
2018-12-30T09:47:00.013Z,2.93
2018-12-30T09:49:29.342Z,3.20
2018-12-30T09:51:58.846Z,2.40
2018-12-30T09:54:28.248Z,2.93
2018-12-30T09:56:57.560Z,2.73
2018-12-30T09:59:26.890Z,2.57
2018-12-30T10:01:56.214Z,2.77
2018-12-30T10:04:25.542Z,2.27
2018-12-30T10:06:54.864Z,2.73
2018-12-30T10:09:24.198Z,3.30
2018-12-30T10:11:53.531Z,2.90
2018-12-30T10:14:22.858Z,2.93
2018-12-30T10:16:52.194Z,2.60
2018-12-30T10:19:21.526Z,3.23
2018-12-30T10:21:50.861Z,3.07
2018-12-30T10:24:20.194Z,2.70
2018-12-30T10:26:49.526Z,3.43
2018-12-30T10:29:18.849Z,4.37
2018-12-30T10:31:48.188Z,3.03
2018-12-30T10:34:17.510Z,3.43
2018-12-30T10:36:46.838Z,3.20
2018-12-30T10:39:16.167Z,3.43
2018-12-30T10:41:45.490Z,3.17
2018-12-30T10:44:14.818Z,2.83
2018-12-30T10:46:44.143Z,3.33
2018-12-30T10:49:13.472Z,3.20
2018-12-30T10:51:42.789Z,3.13
2018-12-30T10:54:12.110Z,3.13
2018-12-30T10:56:41.437Z,2.67
2018-12-30T10:59:10.762Z,3.37
2018-12-30T11:01:40.087Z,2.87
2018-12-30T11:04:09.417Z,3.60
2018-12-30T11:06:38.733Z,3.43
2018-12-30T11:09:08.143Z,3.10
2018-12-30T11:11:37.460Z,3.00
2018-12-30T11:14:06.786Z,2.83
2018-12-30T11:16:36.109Z,2.00
2018-12-30T11:19:05.438Z,2.40
2018-12-30T11:21:34.757Z,2.70
2018-12-30T11:24:08.540Z,2.90
2018-12-30T11:26:35.101Z,2.70
2018-12-30T11:29:04.425Z,3.70
2018-12-30T11:31:33.755Z,2.83
2018-12-30T11:34:03.084Z,3.37
2018-12-30T11:36:32.401Z,2.80
2018-12-30T11:39:01.726Z,3.00
2018-12-30T11:41:31.064Z,3.20
2018-12-30T11:44:00.389Z,2.80
2018-12-30T11:46:29.718Z,2.30
2018-12-30T11:48:59.041Z,2.53
2018-12-30T11:51:28.367Z,2.70
2018-12-30T11:53:57.690Z,3.20
2018-12-30T11:56:27.018Z,3.73
2018-12-30T11:58:56.345Z,2.80
2018-12-30T12:01:25.672Z,3.33
2018-12-30T12:03:55.002Z,3.07
2018-12-30T12:06:24.321Z,2.50
2018-12-30T12:08:53.650Z,2.93
2018-12-30T12:11:22.977Z,2.40
2018-12-30T12:13:52.314Z,2.53
2018-12-30T12:16:21.646Z,2.73
2018-12-30T12:18:50.968Z,2.60
2018-12-30T12:21:20.286Z,2.40
2018-12-30T12:23:49.611Z,3.03
2018-12-30T12:26:18.944Z,3.03
2018-12-30T12:28:48.278Z,2.63
2018-12-30T12:31:17.660Z,2.30
2018-12-30T12:33:47.014Z,2.93
2018-12-30T12:36:16.337Z,2.93
2018-12-30T12:38:45.657Z,2.80
2018-12-30T12:41:14.981Z,3.37
2018-12-30T12:43:44.305Z,2.37
2018-12-30T12:46:13.705Z,2.90
2018-12-30T12:48:43.037Z,3.03
2018-12-30T12:51:12.353Z,2.53
2018-12-30T12:53:41.678Z,2.30
2018-12-30T12:56:10.997Z,3.17
2018-12-30T12:58:40.331Z,3.33
2018-12-30T13:01:09.650Z,3.80
2018-12-30T13:03:38.982Z,3.00
2018-12-30T13:06:08.301Z,2.37
2018-12-30T13:08:37.630Z,3.27
2018-12-30T13:11:06.951Z,2.90
2018-12-30T13:13:36.273Z,2.60
2018-12-30T13:16:05.606Z,2.20
2018-12-30T13:18:34.915Z,2.10
2018-12-30T13:21:04.241Z,2.60
2018-12-30T13:23:33.562Z,2.83
2018-12-30T13:26:02.895Z,2.77
2018-12-30T13:28:32.287Z,2.80
2018-12-30T13:31:01.605Z,3.00
2018-12-30T13:33:30.925Z,2.70
2018-12-30T13:36:00.253Z,2.50
2018-12-30T13:38:29.582Z,2.73
2018-12-30T13:40:58.902Z,2.80
2018-12-30T13:43:28.241Z,3.07
2018-12-30T13:45:57.566Z,2.97
2018-12-30T13:48:26.886Z,2.97
2018-12-30T13:50:56.208Z,3.10
2018-12-30T13:53:25.529Z,3.00
2018-12-30T13:55:54.858Z,2.73
2018-12-30T13:58:24.182Z,2.90
2018-12-30T14:00:53.501Z,3.63
2018-12-30T14:03:22.831Z,2.57
2018-12-30T14:05:52.154Z,2.73
2018-12-30T14:08:21.551Z,3.40
2018-12-30T14:10:51.722Z,2.83
2018-12-30T14:13:21.052Z,2.60
2018-12-30T14:15:51.099Z,2.80
2018-12-30T14:18:20.577Z,3.07
2018-12-30T14:20:49.896Z,2.60
2018-12-30T14:23:19.222Z,2.73
2018-12-30T14:25:48.555Z,3.67
2018-12-30T14:28:17.878Z,2.67
2018-12-30T14:30:47.201Z,2.60
2018-12-30T14:33:16.521Z,2.67
2018-12-30T14:35:45.853Z,3.50
2018-12-30T14:38:15.241Z,2.40
2018-12-30T14:40:44.573Z,2.70
2018-12-30T14:43:13.894Z,2.83
2018-12-30T14:45:43.213Z,3.53
2018-12-30T14:48:12.542Z,2.83
2018-12-30T14:50:41.865Z,4.03
2018-12-30T14:53:19.124Z,3.17
2018-12-30T14:55:42.218Z,2.63
2018-12-30T14:58:11.546Z,2.70
2018-12-30T15:00:40.873Z,3.30
2018-12-30T15:03:10.195Z,3.00
2018-12-30T15:05:39.521Z,3.93
2018-12-30T15:08:08.854Z,2.93
2018-12-30T15:10:38.174Z,3.10
2018-12-30T15:13:07.499Z,2.77
2018-12-30T15:15:36.830Z,2.73
2018-12-30T15:18:06.112Z,3.20
2018-12-30T15:20:35.480Z,3.30
2018-12-30T15:23:04.798Z,3.00
2018-12-30T15:25:34.126Z,3.10
2018-12-30T15:28:03.457Z,4.20
2018-12-30T15:30:32.783Z,3.87
2018-12-30T15:33:02.108Z,3.17
2018-12-30T15:35:31.434Z,3.07
2018-12-30T15:38:00.761Z,3.20
2018-12-30T15:40:30.082Z,3.40
2018-12-30T15:42:59.407Z,3.63
2018-12-30T15:45:28.725Z,2.90
2018-12-30T15:47:58.054Z,4.10
2018-12-30T15:50:27.377Z,3.97
2018-12-30T15:52:56.706Z,3.03
2018-12-30T15:55:26.024Z,3.07
2018-12-30T15:57:55.341Z,3.67
2018-12-30T16:00:24.674Z,4.10
2018-12-30T16:02:53.999Z,3.20
2018-12-30T16:05:23.325Z,3.50
2018-12-30T16:07:52.645Z,4.97
2018-12-30T16:10:21.965Z,3.50
2018-12-30T16:12:51.295Z,3.50
2018-12-30T16:15:20.614Z,3.17
2018-12-30T16:17:49.933Z,3.13
2018-12-30T16:20:19.258Z,3.17
2018-12-30T16:22:48.586Z,3.80
2018-12-30T16:25:17.905Z,3.60
2018-12-30T16:27:47.230Z,4.17
2018-12-30T16:30:16.558Z,3.03
2018-12-30T16:32:45.882Z,2.70
2018-12-30T16:35:15.209Z,3.60
2018-12-30T16:37:44.542Z,3.23
2018-12-30T16:40:13.866Z,2.60
2018-12-30T16:42:43.188Z,3.40
2018-12-30T16:45:12.513Z,3.30
2018-12-30T16:47:42.235Z,3.33
2018-12-30T16:50:11.653Z,3.37
2018-12-30T16:52:40.987Z,3.07
2018-12-30T16:55:10.310Z,2.83
2018-12-30T16:57:39.649Z,3.33
2018-12-30T17:00:09.706Z,3.17
2018-12-30T17:02:39.029Z,3.77
2018-12-30T17:05:08.846Z,3.30
2018-12-30T17:07:38.149Z,4.07
2018-12-30T17:10:08.914Z,3.30
2018-12-30T17:12:38.246Z,3.97
2018-12-30T17:15:08.601Z,3.33
2018-12-30T17:17:37.932Z,3.23
2018-12-30T17:20:07.330Z,3.70
2018-12-30T17:22:36.651Z,3.27
2018-12-30T17:25:06.812Z,3.33
2018-12-30T17:27:36.135Z,3.20
2018-12-30T17:30:09.016Z,4.10
2018-12-30T17:32:57.661Z,3.30
2018-12-30T17:35:26.989Z,4.13
2018-12-30T17:37:56.317Z,4.43
2018-12-30T17:40:25.642Z,4.23
2018-12-30T17:42:54.975Z,4.07
2018-12-30T17:45:24.309Z,3.40
2018-12-30T17:47:53.630Z,4.17
2018-12-30T17:50:22.962Z,4.07
2018-12-30T17:52:52.294Z,3.30
2018-12-30T17:55:23.429Z,3.40
2018-12-30T17:57:52.633Z,3.07
2018-12-30T18:00:21.970Z,3.30
2018-12-30T18:02:51.292Z,2.83
2018-12-30T18:05:20.617Z,4.23
2018-12-30T18:07:49.941Z,3.93
2018-12-30T18:10:19.270Z,3.67
2018-12-30T18:12:48.585Z,3.50
2018-12-30T18:15:17.909Z,4.07
2018-12-30T18:17:47.239Z,3.30
2018-12-30T18:20:16.570Z,3.50
2018-12-30T18:22:45.927Z,3.47
2018-12-30T18:25:15.250Z,3.80
2018-12-30T18:27:44.615Z,4.00
2018-12-30T18:30:13.938Z,4.53
2018-12-30T18:32:43.266Z,4.20
2018-12-30T18:35:12.590Z,3.70
2018-12-30T18:37:41.915Z,3.97
2018-12-30T18:40:11.241Z,4.47
2018-12-30T18:42:40.579Z,4.00
2018-12-30T18:45:10.051Z,3.73
2018-12-30T18:47:39.373Z,3.87
2018-12-30T18:50:09.481Z,3.47
2018-12-30T18:52:38.802Z,4.63
2018-12-30T18:55:08.125Z,5.13
2018-12-30T18:57:37.456Z,3.63
2018-12-30T19:00:08.934Z,4.53
2018-12-30T19:02:38.267Z,4.60
2018-12-30T19:05:08.422Z,4.37
2018-12-30T19:07:37.758Z,4.20
2018-12-30T19:10:07.329Z,4.80
2018-12-30T19:12:36.649Z,4.53
2018-12-30T19:15:06.862Z,5.72
2018-12-30T19:17:36.204Z,4.77
2018-12-30T19:20:06.063Z,3.65
2018-12-30T19:22:35.386Z,4.33
2018-12-30T19:25:05.150Z,4.77
2018-12-30T19:27:34.498Z,5.80
2018-12-30T19:30:04.772Z,5.33
2018-12-30T19:32:34.091Z,4.07
2018-12-30T19:35:03.596Z,5.00
2018-12-30T19:37:32.915Z,4.23
2018-12-30T19:40:02.403Z,4.47
2018-12-30T19:42:31.736Z,4.47
2018-12-30T19:45:01.057Z,4.87
2018-12-30T19:47:30.381Z,4.93
2018-12-30T19:49:59.710Z,4.80
2018-12-30T19:52:29.033Z,4.80
2018-12-30T19:54:58.359Z,4.80
2018-12-30T19:57:27.686Z,4.93
2018-12-30T19:59:57.020Z,4.50
2018-12-30T20:02:26.348Z,4.47
2018-12-30T20:04:55.669Z,4.30
2018-12-30T20:07:24.993Z,4.67
2018-12-30T20:09:54.329Z,5.00
2018-12-30T20:12:23.664Z,4.90
2018-12-30T20:14:52.989Z,4.90
2018-12-30T20:17:22.321Z,4.93
2018-12-30T20:19:51.650Z,5.70
2018-12-30T20:22:20.972Z,5.17
2018-12-30T20:24:50.302Z,6.00
2018-12-30T20:27:19.637Z,5.00
2018-12-30T20:29:48.968Z,5.27
2018-12-30T20:32:18.325Z,6.20
2018-12-30T20:34:47.666Z,5.87
2018-12-30T20:37:17.002Z,7.43
2018-12-30T20:39:46.358Z,8.10
2018-12-30T20:42:15.694Z,9.30
2018-12-30T20:44:48.189Z,11.40
2018-12-30T20:47:17.508Z,10.37
2018-12-30T20:49:46.829Z,12.30
2018-12-30T20:52:16.167Z,13.30
2018-12-30T20:54:45.493Z,11.83
2018-12-30T20:57:14.832Z,11.07
2018-12-30T20:59:44.162Z,12.33
2018-12-30T21:02:13.489Z,12.53
2018-12-30T21:04:42.893Z,12.13
2018-12-30T21:07:12.230Z,13.07
2018-12-30T21:09:41.562Z,12.20
2018-12-30T21:12:10.894Z,11.90
2018-12-30T21:14:40.221Z,12.60
2018-12-30T21:17:09.559Z,12.27
2018-12-30T21:19:38.890Z,12.67
2018-12-30T21:22:08.226Z,11.47
2018-12-30T21:24:37.549Z,11.63
2018-12-30T21:27:06.877Z,10.97
2018-12-30T21:29:36.833Z,12.87
2018-12-30T21:32:06.209Z,11.20
2018-12-30T21:34:35.539Z,10.47
2018-12-30T21:37:04.862Z,12.17
2018-12-30T21:39:34.199Z,11.70
2018-12-30T21:42:03.534Z,11.47
2018-12-30T21:44:32.876Z,12.53
2018-12-30T21:47:02.198Z,13.47
2018-12-30T21:49:31.521Z,13.67
2018-12-30T21:52:00.856Z,15.23
2018-12-30T21:54:30.184Z,14.37
2018-12-30T21:56:59.519Z,12.83
2018-12-30T21:59:28.838Z,13.90
2018-12-30T22:01:58.178Z,15.13
2018-12-30T22:04:27.469Z,13.63
2018-12-30T22:06:56.836Z,13.37
2018-12-30T22:09:26.166Z,15.40
2018-12-30T22:11:55.501Z,13.50
2018-12-30T22:14:24.839Z,14.77
2018-12-30T22:16:54.166Z,13.77
2018-12-30T22:19:23.487Z,14.23
2018-12-30T22:21:52.821Z,14.07
2018-12-30T22:24:22.145Z,14.03
2018-12-30T22:26:51.484Z,15.17
2018-12-30T22:29:20.809Z,14.50
2018-12-30T22:31:50.147Z,13.13
2018-12-30T22:34:19.475Z,14.47
2018-12-30T22:36:48.810Z,14.40
2018-12-30T22:39:19.234Z,15.50
2018-12-30T22:41:48.746Z,15.60
2018-12-30T22:44:18.073Z,14.27
2018-12-30T22:46:47.405Z,14.17
2018-12-30T22:49:16.729Z,14.60
2018-12-30T22:51:46.067Z,14.00
2018-12-30T22:54:15.390Z,13.73
2018-12-30T22:56:44.713Z,13.73
2018-12-30T22:59:14.045Z,12.30
2018-12-30T23:01:43.549Z,13.20
2018-12-30T23:04:13.188Z,16.10
2018-12-30T23:06:42.551Z,13.80
2018-12-30T23:09:11.877Z,13.47
2018-12-30T23:11:41.201Z,15.40
2018-12-30T23:14:10.532Z,14.43
2018-12-30T23:16:39.870Z,14.43
2018-12-30T23:19:09.198Z,14.17
2018-12-30T23:21:38.536Z,14.40
2018-12-30T23:24:07.862Z,14.50
2018-12-30T23:26:37.186Z,13.67
2018-12-30T23:29:06.509Z,14.03
2018-12-30T23:31:35.837Z,13.63
2018-12-30T23:34:05.175Z,13.80
2018-12-30T23:36:34.506Z,13.23
2018-12-30T23:39:05.170Z,15.30
2018-12-30T23:41:34.497Z,16.13
2018-12-30T23:44:03.835Z,14.70
2018-12-30T23:46:33.161Z,15.03
2018-12-30T23:49:02.503Z,13.73
2018-12-30T23:51:31.830Z,14.83
2018-12-30T23:54:01.152Z,13.70
2018-12-30T23:56:30.494Z,14.70
2018-12-30T23:58:59.813Z,15.77
